sensor_id;sensor_type;location;lat;lon;timestamp;temperature;humidity
4097;DHT22;2062;50.694;7.246;2023-12-04T00:02:25;1.00;56.50
4097;DHT22;2062;50.694;7.246;2023-12-04T00:04:52;1.10;56.50
4097;DHT22;2062;50.694;7.246;2023-12-04T00:07:18;1.10;56.50
4097;DHT22;2062;50.694;7.246;2023-12-04T00:09:45;1.10;56.70
4097;DHT22;2062;50.694;7.246;2023-12-04T00:12:12;1.10;56.50
4097;DHT22;2062;50.694;7.246;2023-12-04T00:14:40;1.10;56.20
4097;DHT22;2062;50.694;7.246;2023-12-04T00:17:07;1.00;55.70
4097;DHT22;2062;50.694;7.246;2023-12-04T00:19:34;1.10;56.10
4097;DHT22;2062;50.694;7.246;2023-12-04T00:22:01;1.00;55.90
4097;DHT22;2062;50.694;7.246;2023-12-04T00:24:27;1.00;56.00
4097;DHT22;2062;50.694;7.246;2023-12-04T00:26:54;1.10;55.80
4097;DHT22;2062;50.694;7.246;2023-12-04T00:29:21;1.00;55.50
4097;DHT22;2062;50.694;7.246;2023-12-04T00:31:49;1.00;55.70
4097;DHT22;2062;50.694;7.246;2023-12-04T00:34:16;1.00;55.90
4097;DHT22;2062;50.694;7.246;2023-12-04T00:36:43;1.10;55.90
4097;DHT22;2062;50.694;7.246;2023-12-04T00:39:10;1.10;55.90
4097;DHT22;2062;50.694;7.246;2023-12-04T00:41:36;1.10;55.40
4097;DHT22;2062;50.694;7.246;2023-12-04T00:44:04;1.10;55.80
4097;DHT22;2062;50.694;7.246;2023-12-04T00:46:30;1.10;55.90
4097;DHT22;2062;50.694;7.246;2023-12-04T00:48:58;1.10;55.60
4097;DHT22;2062;50.694;7.246;2023-12-04T00:51:25;1.00;55.60
4097;DHT22;2062;50.694;7.246;2023-12-04T00:53:53;1.00;55.70
4097;DHT22;2062;50.694;7.246;2023-12-04T00:56:20;1.00;55.50
4097;DHT22;2062;50.694;7.246;2023-12-04T00:58:46;1.10;55.60
4097;DHT22;2062;50.694;7.246;2023-12-04T01:01:15;1.10;55.50
4097;DHT22;2062;50.694;7.246;2023-12-04T01:03:41;1.10;55.60
4097;DHT22;2062;50.694;7.246;2023-12-04T01:06:20;1.10;55.40
4097;DHT22;2062;50.694;7.246;2023-12-04T01:08:47;1.10;55.40
4097;DHT22;2062;50.694;7.246;2023-12-04T01:11:14;1.00;55.10
4097;DHT22;2062;50.694;7.246;2023-12-04T01:13:40;1.10;55.20
4097;DHT22;2062;50.694;7.246;2023-12-04T01:16:08;1.00;55.00
4097;DHT22;2062;50.694;7.246;2023-12-04T01:18:34;1.10;55.30
4097;DHT22;2062;50.694;7.246;2023-12-04T01:21:01;1.10;55.40
4097;DHT22;2062;50.694;7.246;2023-12-04T01:23:29;1.10;55.20
4097;DHT22;2062;50.694;7.246;2023-12-04T01:25:56;1.00;55.00
4097;DHT22;2062;50.694;7.246;2023-12-04T01:28:23;1.00;55.10
4097;DHT22;2062;50.694;7.246;2023-12-04T01:30:50;1.00;55.10
4097;DHT22;2062;50.694;7.246;2023-12-04T01:33:17;1.10;55.00
4097;DHT22;2062;50.694;7.246;2023-12-04T01:35:43;1.00;54.80
4097;DHT22;2062;50.694;7.246;2023-12-04T01:38:10;1.10;54.80
4097;DHT22;2062;50.694;7.246;2023-12-04T01:40:38;1.10;54.80
4097;DHT22;2062;50.694;7.246;2023-12-04T01:43:05;1.10;55.40
4097;DHT22;2062;50.694;7.246;2023-12-04T01:45:32;1.10;54.40
4097;DHT22;2062;50.694;7.246;2023-12-04T01:47:59;1.10;54.40
4097;DHT22;2062;50.694;7.246;2023-12-04T01:50:26;1.10;54.60
4097;DHT22;2062;50.694;7.246;2023-12-04T01:52:53;1.10;54.50
4097;DHT22;2062;50.694;7.246;2023-12-04T01:55:20;1.10;54.80
4097;DHT22;2062;50.694;7.246;2023-12-04T01:57:49;1.10;54.50
4097;DHT22;2062;50.694;7.246;2023-12-04T02:00:17;1.10;54.50
4097;DHT22;2062;50.694;7.246;2023-12-04T02:02:46;1.10;54.50
4097;DHT22;2062;50.694;7.246;2023-12-04T02:05:14;1.10;54.20
4097;DHT22;2062;50.694;7.246;2023-12-04T02:07:42;1.10;54.10
4097;DHT22;2062;50.694;7.246;2023-12-04T02:10:09;1.10;54.10
4097;DHT22;2062;50.694;7.246;2023-12-04T02:12:37;1.10;54.20
4097;DHT22;2062;50.694;7.246;2023-12-04T02:15:06;1.10;54.20
4097;DHT22;2062;50.694;7.246;2023-12-04T02:17:34;1.10;54.20
4097;DHT22;2062;50.694;7.246;2023-12-04T02:20:01;1.10;54.30
4097;DHT22;2062;50.694;7.246;2023-12-04T02:22:29;1.10;54.30
4097;DHT22;2062;50.694;7.246;2023-12-04T02:24:57;1.10;54.30
4097;DHT22;2062;50.694;7.246;2023-12-04T02:27:28;1.10;54.10
4097;DHT22;2062;50.694;7.246;2023-12-04T02:29:59;1.10;53.60
4097;DHT22;2062;50.694;7.246;2023-12-04T02:32:28;1.10;52.90
4097;DHT22;2062;50.694;7.246;2023-12-04T02:34:56;1.10;53.70
4097;DHT22;2062;50.694;7.246;2023-12-04T02:37:25;1.10;53.70
4097;DHT22;2062;50.694;7.246;2023-12-04T02:39:52;1.00;53.30
4097;DHT22;2062;50.694;7.246;2023-12-04T02:42:22;1.10;53.50
4097;DHT22;2062;50.694;7.246;2023-12-04T02:44:50;1.10;53.50
4097;DHT22;2062;50.694;7.246;2023-12-04T02:47:17;1.10;53.40
4097;DHT22;2062;50.694;7.246;2023-12-04T02:49:44;1.10;53.40
4097;DHT22;2062;50.694;7.246;2023-12-04T02:52:11;1.10;52.10
4097;DHT22;2062;50.694;7.246;2023-12-04T02:54:38;1.10;53.20
4097;DHT22;2062;50.694;7.246;2023-12-04T02:57:05;1.10;53.30
4097;DHT22;2062;50.694;7.246;2023-12-04T02:59:33;1.10;53.00
4097;DHT22;2062;50.694;7.246;2023-12-04T03:01:59;1.10;52.90
4097;DHT22;2062;50.694;7.246;2023-12-04T03:04:27;1.10;53.00
4097;DHT22;2062;50.694;7.246;2023-12-04T03:06:54;1.10;52.60
4097;DHT22;2062;50.694;7.246;2023-12-04T03:09:21;1.10;52.90
4097;DHT22;2062;50.694;7.246;2023-12-04T03:11:48;1.10;52.60
4097;DHT22;2062;50.694;7.246;2023-12-04T03:14:14;1.10;52.40
4097;DHT22;2062;50.694;7.246;2023-12-04T03:16:42;1.10;53.00
4097;DHT22;2062;50.694;7.246;2023-12-04T03:19:09;1.10;52.80
4097;DHT22;2062;50.694;7.246;2023-12-04T03:21:36;1.10;52.60
4097;DHT22;2062;50.694;7.246;2023-12-04T03:24:03;1.10;52.90
4097;DHT22;2062;50.694;7.246;2023-12-04T03:26:30;1.10;52.80
4097;DHT22;2062;50.694;7.246;2023-12-04T03:28:57;1.10;52.70
4097;DHT22;2062;50.694;7.246;2023-12-04T03:31:24;1.10;52.80
4097;DHT22;2062;50.694;7.246;2023-12-04T03:33:52;1.10;52.70
4097;DHT22;2062;50.694;7.246;2023-12-04T03:36:19;1.10;52.80
4097;DHT22;2062;50.694;7.246;2023-12-04T03:38:46;1.10;53.00
4097;DHT22;2062;50.694;7.246;2023-12-04T03:41:13;1.00;52.30
4097;DHT22;2062;50.694;7.246;2023-12-04T03:43:41;1.10;52.70
4097;DHT22;2062;50.694;7.246;2023-12-04T03:46:08;1.10;52.90
4097;DHT22;2062;50.694;7.246;2023-12-04T03:48:35;1.10;52.90
4097;DHT22;2062;50.694;7.246;2023-12-04T03:51:04;1.10;52.50
4097;DHT22;2062;50.694;7.246;2023-12-04T03:53:31;1.10;53.00
4097;DHT22;2062;50.694;7.246;2023-12-04T03:55:58;1.10;52.90
4097;DHT22;2062;50.694;7.246;2023-12-04T03:58:25;1.00;52.80
4097;DHT22;2062;50.694;7.246;2023-12-04T04:00:52;1.00;53.50
4097;DHT22;2062;50.694;7.246;2023-12-04T04:03:18;1.00;53.20
4097;DHT22;2062;50.694;7.246;2023-12-04T04:05:45;1.00;53.20
4097;DHT22;2062;50.694;7.246;2023-12-04T04:08:13;1.00;53.20
4097;DHT22;2062;50.694;7.246;2023-12-04T04:10:40;1.10;53.30
4097;DHT22;2062;50.694;7.246;2023-12-04T04:13:07;1.00;53.10
4097;DHT22;2062;50.694;7.246;2023-12-04T04:15:33;1.00;53.10
4097;DHT22;2062;50.694;7.246;2023-12-04T04:18:00;1.00;53.40
4097;DHT22;2062;50.694;7.246;2023-12-04T04:20:27;0.90;53.50
4097;DHT22;2062;50.694;7.246;2023-12-04T04:22:54;0.90;53.30
4097;DHT22;2062;50.694;7.246;2023-12-04T04:25:22;0.90;53.40
4097;DHT22;2062;50.694;7.246;2023-12-04T04:27:49;0.90;53.50
4097;DHT22;2062;50.694;7.246;2023-12-04T04:30:16;0.90;53.40
4097;DHT22;2062;50.694;7.246;2023-12-04T04:32:43;0.90;53.50
4097;DHT22;2062;50.694;7.246;2023-12-04T04:35:10;0.90;53.50
4097;DHT22;2062;50.694;7.246;2023-12-04T04:37:37;0.90;53.40
4097;DHT22;2062;50.694;7.246;2023-12-04T04:40:04;0.80;53.50
4097;DHT22;2062;50.694;7.246;2023-12-04T04:42:33;0.80;53.40
4097;DHT22;2062;50.694;7.246;2023-12-04T04:44:59;0.80;53.40
4097;DHT22;2062;50.694;7.246;2023-12-04T04:47:26;0.80;53.60
4097;DHT22;2062;50.694;7.246;2023-12-04T04:49:53;0.80;53.50
4097;DHT22;2062;50.694;7.246;2023-12-04T04:52:20;0.80;53.40
4097;DHT22;2062;50.694;7.246;2023-12-04T04:54:46;0.70;53.70
4097;DHT22;2062;50.694;7.246;2023-12-04T04:57:13;0.70;53.50
4097;DHT22;2062;50.694;7.246;2023-12-04T04:59:41;0.80;53.80
4097;DHT22;2062;50.694;7.246;2023-12-04T05:02:08;0.80;53.80
4097;DHT22;2062;50.694;7.246;2023-12-04T05:04:35;0.80;53.70
4097;DHT22;2062;50.694;7.246;2023-12-04T05:07:01;0.80;53.70
4097;DHT22;2062;50.694;7.246;2023-12-04T05:09:28;0.80;53.50
4097;DHT22;2062;50.694;7.246;2023-12-04T05:11:55;0.80;53.70
4097;DHT22;2062;50.694;7.246;2023-12-04T05:14:22;0.80;53.70
4097;DHT22;2062;50.694;7.246;2023-12-04T05:16:50;0.80;53.60
4097;DHT22;2062;50.694;7.246;2023-12-04T05:19:17;0.70;53.80
4097;DHT22;2062;50.694;7.246;2023-12-04T05:21:43;0.80;53.80
4097;DHT22;2062;50.694;7.246;2023-12-04T05:24:10;0.80;53.70
4097;DHT22;2062;50.694;7.246;2023-12-04T05:26:37;0.80;53.90
4097;DHT22;2062;50.694;7.246;2023-12-04T05:29:04;0.80;53.90
4097;DHT22;2062;50.694;7.246;2023-12-04T05:31:31;0.70;54.00
4097;DHT22;2062;50.694;7.246;2023-12-04T05:33:59;0.80;53.80
4097;DHT22;2062;50.694;7.246;2023-12-04T05:36:26;0.80;53.90
4097;DHT22;2062;50.694;7.246;2023-12-04T05:38:53;0.80;53.80
4097;DHT22;2062;50.694;7.246;2023-12-04T05:41:20;0.70;54.00
4097;DHT22;2062;50.694;7.246;2023-12-04T05:43:47;0.80;54.10
4097;DHT22;2062;50.694;7.246;2023-12-04T05:46:13;0.70;54.20
4097;DHT22;2062;50.694;7.246;2023-12-04T05:48:40;0.70;54.30
4097;DHT22;2062;50.694;7.246;2023-12-04T05:51:10;0.70;54.30
4097;DHT22;2062;50.694;7.246;2023-12-04T05:53:37;0.70;54.40
4097;DHT22;2062;50.694;7.246;2023-12-04T05:56:05;0.70;54.40
4097;DHT22;2062;50.694;7.246;2023-12-04T05:58:34;0.70;54.50
4097;DHT22;2062;50.694;7.246;2023-12-04T06:01:01;0.70;54.60
4097;DHT22;2062;50.694;7.246;2023-12-04T06:03:28;0.70;54.60
4097;DHT22;2062;50.694;7.246;2023-12-04T06:05:54;0.70;54.70
4097;DHT22;2062;50.694;7.246;2023-12-04T06:08:23;0.60;54.50
4097;DHT22;2062;50.694;7.246;2023-12-04T06:10:49;0.60;54.40
4097;DHT22;2062;50.694;7.246;2023-12-04T06:13:16;0.60;54.50
4097;DHT22;2062;50.694;7.246;2023-12-04T06:15:43;0.60;54.40
4097;DHT22;2062;50.694;7.246;2023-12-04T06:18:10;0.60;54.60
4097;DHT22;2062;50.694;7.246;2023-12-04T06:20:37;0.60;54.70
4097;DHT22;2062;50.694;7.246;2023-12-04T06:23:04;0.60;54.60
4097;DHT22;2062;50.694;7.246;2023-12-04T06:25:33;0.60;54.50
4097;DHT22;2062;50.694;7.246;2023-12-04T06:28:00;0.60;54.60
4097;DHT22;2062;50.694;7.246;2023-12-04T06:30:28;0.60;54.70
4097;DHT22;2062;50.694;7.246;2023-12-04T06:32:55;0.60;54.70
4097;DHT22;2062;50.694;7.246;2023-12-04T06:35:22;0.60;54.80
4097;DHT22;2062;50.694;7.246;2023-12-04T06:37:52;0.60;54.80
4097;DHT22;2062;50.694;7.246;2023-12-04T06:40:20;0.60;54.70
4097;DHT22;2062;50.694;7.246;2023-12-04T06:42:50;0.60;54.80
4097;DHT22;2062;50.694;7.246;2023-12-04T06:45:18;0.60;54.70
4097;DHT22;2062;50.694;7.246;2023-12-04T06:47:46;0.60;54.80
4097;DHT22;2062;50.694;7.246;2023-12-04T06:50:15;0.60;54.80
4097;DHT22;2062;50.694;7.246;2023-12-04T06:52:42;0.60;54.70
4097;DHT22;2062;50.694;7.246;2023-12-04T06:55:09;0.60;54.70
4097;DHT22;2062;50.694;7.246;2023-12-04T06:57:35;0.50;54.70
4097;DHT22;2062;50.694;7.246;2023-12-04T07:00:04;0.60;54.70
4097;DHT22;2062;50.694;7.246;2023-12-04T07:02:33;0.50;54.60
4097;DHT22;2062;50.694;7.246;2023-12-04T07:05:00;0.60;54.50
4097;DHT22;2062;50.694;7.246;2023-12-04T07:07:28;0.50;54.70
4097;DHT22;2062;50.694;7.246;2023-12-04T07:09:55;0.50;54.60
4097;DHT22;2062;50.694;7.246;2023-12-04T07:12:22;0.50;54.70
4097;DHT22;2062;50.694;7.246;2023-12-04T07:14:48;0.50;54.40
4097;DHT22;2062;50.694;7.246;2023-12-04T07:17:17;0.50;54.50
4097;DHT22;2062;50.694;7.246;2023-12-04T07:19:43;0.50;54.50
4097;DHT22;2062;50.694;7.246;2023-12-04T07:22:10;0.50;54.60
4097;DHT22;2062;50.694;7.246;2023-12-04T07:24:37;0.50;54.50
4097;DHT22;2062;50.694;7.246;2023-12-04T07:27:04;0.40;54.50
4097;DHT22;2062;50.694;7.246;2023-12-04T07:29:31;0.50;54.60
4097;DHT22;2062;50.694;7.246;2023-12-04T07:31:57;0.50;54.70
4097;DHT22;2062;50.694;7.246;2023-12-04T07:34:26;0.50;54.50
4097;DHT22;2062;50.694;7.246;2023-12-04T07:36:53;0.50;54.60
4097;DHT22;2062;50.694;7.246;2023-12-04T07:39:20;0.50;54.40
4097;DHT22;2062;50.694;7.246;2023-12-04T07:41:47;0.50;54.30
4097;DHT22;2062;50.694;7.246;2023-12-04T07:44:14;0.50;54.40
4097;DHT22;2062;50.694;7.246;2023-12-04T07:46:41;0.50;54.40
4097;DHT22;2062;50.694;7.246;2023-12-04T07:49:07;0.50;54.30
4097;DHT22;2062;50.694;7.246;2023-12-04T07:51:35;0.50;54.50
4097;DHT22;2062;50.694;7.246;2023-12-04T07:54:03;0.50;54.30
4097;DHT22;2062;50.694;7.246;2023-12-04T07:56:30;0.50;54.00
4097;DHT22;2062;50.694;7.246;2023-12-04T07:58:57;0.50;54.20
4097;DHT22;2062;50.694;7.246;2023-12-04T08:01:24;0.50;54.20
4097;DHT22;2062;50.694;7.246;2023-12-04T08:03:51;0.50;54.10
4097;DHT22;2062;50.694;7.246;2023-12-04T08:06:17;0.50;54.30
4097;DHT22;2062;50.694;7.246;2023-12-04T08:08:46;0.50;54.20
4097;DHT22;2062;50.694;7.246;2023-12-04T08:11:12;0.50;54.20
4097;DHT22;2062;50.694;7.246;2023-12-04T08:13:39;0.50;54.20
4097;DHT22;2062;50.694;7.246;2023-12-04T08:16:12;0.50;54.00
4097;DHT22;2062;50.694;7.246;2023-12-04T08:18:39;0.50;54.00
4097;DHT22;2062;50.694;7.246;2023-12-04T08:21:07;0.50;54.10
4097;DHT22;2062;50.694;7.246;2023-12-04T08:23:33;0.60;54.20
4097;DHT22;2062;50.694;7.246;2023-12-04T08:26:02;0.60;54.00
4097;DHT22;2062;50.694;7.246;2023-12-04T08:28:28;0.60;54.10
4097;DHT22;2062;50.694;7.246;2023-12-04T08:30:56;0.60;53.80
4097;DHT22;2062;50.694;7.246;2023-12-04T08:33:23;0.60;53.80
4097;DHT22;2062;50.694;7.246;2023-12-04T08:35:50;0.60;53.80
4097;DHT22;2062;50.694;7.246;2023-12-04T08:38:16;0.60;53.80
4097;DHT22;2062;50.694;7.246;2023-12-04T08:40:43;0.60;53.80
4097;DHT22;2062;50.694;7.246;2023-12-04T08:43:12;0.60;53.90
4097;DHT22;2062;50.694;7.246;2023-12-04T08:45:38;0.60;53.70
4097;DHT22;2062;50.694;7.246;2023-12-04T08:48:05;0.60;53.80
4097;DHT22;2062;50.694;7.246;2023-12-04T08:50:32;0.60;53.80
4097;DHT22;2062;50.694;7.246;2023-12-04T08:52:59;0.60;53.90
4097;DHT22;2062;50.694;7.246;2023-12-04T08:55:26;0.70;54.10
4097;DHT22;2062;50.694;7.246;2023-12-04T08:57:53;0.70;54.00
4097;DHT22;2062;50.694;7.246;2023-12-04T09:00:22;0.70;54.00
4097;DHT22;2062;50.694;7.246;2023-12-04T09:02:48;0.70;53.50
4097;DHT22;2062;50.694;7.246;2023-12-04T09:05:15;0.70;53.70
4097;DHT22;2062;50.694;7.246;2023-12-04T09:07:42;0.70;53.90
4097;DHT22;2062;50.694;7.246;2023-12-04T09:10:09;0.70;53.90
4097;DHT22;2062;50.694;7.246;2023-12-04T09:12:36;0.80;53.90
4097;DHT22;2062;50.694;7.246;2023-12-04T09:15:04;0.80;54.10
4097;DHT22;2062;50.694;7.246;2023-12-04T09:17:32;0.80;53.90
4097;DHT22;2062;50.694;7.246;2023-12-04T09:19:59;0.80;54.00
4097;DHT22;2062;50.694;7.246;2023-12-04T09:22:26;0.80;53.90
4097;DHT22;2062;50.694;7.246;2023-12-04T09:24:53;0.80;53.50
4097;DHT22;2062;50.694;7.246;2023-12-04T09:27:20;0.80;53.60
4097;DHT22;2062;50.694;7.246;2023-12-04T09:29:47;0.80;53.70
4097;DHT22;2062;50.694;7.246;2023-12-04T09:32:13;0.90;53.90
4097;DHT22;2062;50.694;7.246;2023-12-04T09:34:42;0.90;54.50
4097;DHT22;2062;50.694;7.246;2023-12-04T09:37:08;0.90;53.90
4097;DHT22;2062;50.694;7.246;2023-12-04T09:39:35;0.90;53.90
4097;DHT22;2062;50.694;7.246;2023-12-04T09:42:02;0.90;53.90
4097;DHT22;2062;50.694;7.246;2023-12-04T09:44:30;0.90;54.00
4097;DHT22;2062;50.694;7.246;2023-12-04T09:46:57;0.90;53.90
4097;DHT22;2062;50.694;7.246;2023-12-04T09:49:27;1.00;54.60
4097;DHT22;2062;50.694;7.246;2023-12-04T09:51:57;1.00;54.10
4097;DHT22;2062;50.694;7.246;2023-12-04T09:54:24;1.00;54.00
4097;DHT22;2062;50.694;7.246;2023-12-04T09:56:52;1.00;53.80
4097;DHT22;2062;50.694;7.246;2023-12-04T09:59:24;1.00;54.10
4097;DHT22;2062;50.694;7.246;2023-12-04T10:01:51;1.10;54.00
4097;DHT22;2062;50.694;7.246;2023-12-04T10:04:18;1.00;53.90
4097;DHT22;2062;50.694;7.246;2023-12-04T10:06:49;1.10;54.20
4097;DHT22;2062;50.694;7.246;2023-12-04T10:09:19;1.10;54.10
4097;DHT22;2062;50.694;7.246;2023-12-04T10:11:48;1.10;54.00
4097;DHT22;2062;50.694;7.246;2023-12-04T10:14:19;1.20;54.70
4097;DHT22;2062;50.694;7.246;2023-12-04T10:16:47;1.10;54.20
4097;DHT22;2062;50.694;7.246;2023-12-04T10:19:16;1.20;54.30
4097;DHT22;2062;50.694;7.246;2023-12-04T10:21:44;1.20;54.90
4097;DHT22;2062;50.694;7.246;2023-12-04T10:24:11;1.30;54.60
4097;DHT22;2062;50.694;7.246;2023-12-04T10:26:50;1.20;54.50
4097;DHT22;2062;50.694;7.246;2023-12-04T10:29:17;1.30;54.70
4097;DHT22;2062;50.694;7.246;2023-12-04T10:31:44;1.30;55.00
4097;DHT22;2062;50.694;7.246;2023-12-04T10:34:13;1.30;55.10
4097;DHT22;2062;50.694;7.246;2023-12-04T10:36:40;1.30;55.20
4097;DHT22;2062;50.694;7.246;2023-12-04T10:39:07;1.30;55.30
4097;DHT22;2062;50.694;7.246;2023-12-04T10:41:34;1.40;55.30
4097;DHT22;2062;50.694;7.246;2023-12-04T10:44:02;1.40;55.40
4097;DHT22;2062;50.694;7.246;2023-12-04T10:46:30;1.40;55.50
4097;DHT22;2062;50.694;7.246;2023-12-04T10:48:58;1.40;55.50
4097;DHT22;2062;50.694;7.246;2023-12-04T10:51:25;1.50;55.60
4097;DHT22;2062;50.694;7.246;2023-12-04T10:53:53;1.40;55.50
4097;DHT22;2062;50.694;7.246;2023-12-04T10:56:35;1.50;55.60
4097;DHT22;2062;50.694;7.246;2023-12-04T10:59:10;1.50;55.60
4097;DHT22;2062;50.694;7.246;2023-12-04T11:01:38;1.60;55.50
4097;DHT22;2062;50.694;7.246;2023-12-04T11:04:07;1.60;55.40
4097;DHT22;2062;50.694;7.246;2023-12-04T11:06:39;1.60;55.50
4097;DHT22;2062;50.694;7.246;2023-12-04T11:09:07;1.60;55.50
4097;DHT22;2062;50.694;7.246;2023-12-04T11:11:36;1.60;55.50
4097;DHT22;2062;50.694;7.246;2023-12-04T11:14:08;1.60;55.40
4097;DHT22;2062;50.694;7.246;2023-12-04T11:16:44;1.70;55.60
4097;DHT22;2062;50.694;7.246;2023-12-04T11:19:17;1.70;55.70
4097;DHT22;2062;50.694;7.246;2023-12-04T11:21:45;1.70;55.70
4097;DHT22;2062;50.694;7.246;2023-12-04T11:24:12;1.70;55.70
4097;DHT22;2062;50.694;7.246;2023-12-04T11:26:40;1.70;55.60
4097;DHT22;2062;50.694;7.246;2023-12-04T11:29:09;1.70;55.70
4097;DHT22;2062;50.694;7.246;2023-12-04T11:31:38;1.70;55.80
4097;DHT22;2062;50.694;7.246;2023-12-04T11:34:08;1.80;55.90
4097;DHT22;2062;50.694;7.246;2023-12-04T11:36:36;1.70;56.20
4097;DHT22;2062;50.694;7.246;2023-12-04T11:39:07;1.70;56.30
4097;DHT22;2062;50.694;7.246;2023-12-04T11:41:35;1.70;56.40
4097;DHT22;2062;50.694;7.246;2023-12-04T11:44:03;1.70;56.50
4097;DHT22;2062;50.694;7.246;2023-12-04T11:46:31;1.70;56.60
4097;DHT22;2062;50.694;7.246;2023-12-04T11:49:29;1.70;56.60
4097;DHT22;2062;50.694;7.246;2023-12-04T11:51:56;1.70;56.80
4097;DHT22;2062;50.694;7.246;2023-12-04T11:54:23;1.70;57.00
4097;DHT22;2062;50.694;7.246;2023-12-04T11:59:43;1.70;57.30
4097;DHT22;2062;50.694;7.246;2023-12-04T12:02:11;1.70;57.30
4097;DHT22;2062;50.694;7.246;2023-12-04T12:04:38;1.70;57.30
4097;DHT22;2062;50.694;7.246;2023-12-04T12:07:05;1.70;57.50
4097;DHT22;2062;50.694;7.246;2023-12-04T12:09:33;1.70;57.60
4097;DHT22;2062;50.694;7.246;2023-12-04T12:12:01;1.70;57.70
4097;DHT22;2062;50.694;7.246;2023-12-04T12:14:28;1.70;57.80
4097;DHT22;2062;50.694;7.246;2023-12-04T12:16:55;1.70;57.90
4097;DHT22;2062;50.694;7.246;2023-12-04T12:19:23;1.70;57.90
4097;DHT22;2062;50.694;7.246;2023-12-04T12:21:50;1.70;58.00
4097;DHT22;2062;50.694;7.246;2023-12-04T12:24:18;1.70;58.10
4097;DHT22;2062;50.694;7.246;2023-12-04T12:26:46;1.70;58.20
4097;DHT22;2062;50.694;7.246;2023-12-04T12:29:13;1.70;58.30
4097;DHT22;2062;50.694;7.246;2023-12-04T12:31:40;1.70;58.30
4097;DHT22;2062;50.694;7.246;2023-12-04T12:34:07;1.80;58.50
4097;DHT22;2062;50.694;7.246;2023-12-04T12:36:35;1.80;58.50
4097;DHT22;2062;50.694;7.246;2023-12-04T12:39:02;1.80;58.60
4097;DHT22;2062;50.694;7.246;2023-12-04T12:41:30;1.80;58.70
4097;DHT22;2062;50.694;7.246;2023-12-04T12:43:57;1.80;58.70
4097;DHT22;2062;50.694;7.246;2023-12-04T12:46:25;1.80;58.80
4097;DHT22;2062;50.694;7.246;2023-12-04T12:48:52;1.80;58.90
4097;DHT22;2062;50.694;7.246;2023-12-04T12:51:19;1.80;58.90
4097;DHT22;2062;50.694;7.246;2023-12-04T12:53:47;1.80;58.90
4097;DHT22;2062;50.694;7.246;2023-12-04T12:56:14;1.80;59.00
4097;DHT22;2062;50.694;7.246;2023-12-04T12:58:41;1.80;59.00
4097;DHT22;2062;50.694;7.246;2023-12-04T13:01:10;1.80;59.00
4097;DHT22;2062;50.694;7.246;2023-12-04T13:03:36;1.80;59.10
4097;DHT22;2062;50.694;7.246;2023-12-04T13:06:04;1.80;59.00
4097;DHT22;2062;50.694;7.246;2023-12-04T13:08:31;1.80;59.20
4097;DHT22;2062;50.694;7.246;2023-12-04T13:10:59;1.80;59.20
4097;DHT22;2062;50.694;7.246;2023-12-04T13:13:26;1.90;59.30
4097;DHT22;2062;50.694;7.246;2023-12-04T13:15:54;1.90;59.40
4097;DHT22;2062;50.694;7.246;2023-12-04T13:18:21;1.80;59.30
4097;DHT22;2062;50.694;7.246;2023-12-04T13:20:47;1.80;59.30
4097;DHT22;2062;50.694;7.246;2023-12-04T13:23:14;1.90;59.40
4097;DHT22;2062;50.694;7.246;2023-12-04T13:25:41;1.90;59.50
4097;DHT22;2062;50.694;7.246;2023-12-04T13:28:10;1.90;59.50
4097;DHT22;2062;50.694;7.246;2023-12-04T13:30:39;1.90;59.50
4097;DHT22;2062;50.694;7.246;2023-12-04T13:33:05;1.80;59.40
4097;DHT22;2062;50.694;7.246;2023-12-04T13:35:33;1.90;59.60
4097;DHT22;2062;50.694;7.246;2023-12-04T13:38:00;1.90;59.50
4097;DHT22;2062;50.694;7.246;2023-12-04T13:40:27;1.90;59.60
4097;DHT22;2062;50.694;7.246;2023-12-04T13:42:57;1.80;59.60
4097;DHT22;2062;50.694;7.246;2023-12-04T13:45:58;1.90;59.60
4097;DHT22;2062;50.694;7.246;2023-12-04T13:48:24;1.80;59.60
4097;DHT22;2062;50.694;7.246;2023-12-04T13:50:51;1.80;59.50
4097;DHT22;2062;50.694;7.246;2023-12-04T13:53:18;1.80;59.60
4097;DHT22;2062;50.694;7.246;2023-12-04T13:55:51;1.80;59.50
4097;DHT22;2062;50.694;7.246;2023-12-04T13:58:41;1.80;59.70
4097;DHT22;2062;50.694;7.246;2023-12-04T14:01:11;1.90;59.70
4097;DHT22;2062;50.694;7.246;2023-12-04T14:03:40;1.90;59.80
4097;DHT22;2062;50.694;7.246;2023-12-04T14:06:07;1.80;59.80
4097;DHT22;2062;50.694;7.246;2023-12-04T14:08:35;1.80;59.80
4097;DHT22;2062;50.694;7.246;2023-12-04T14:11:02;1.80;59.80
4097;DHT22;2062;50.694;7.246;2023-12-04T14:13:29;1.80;60.00
4097;DHT22;2062;50.694;7.246;2023-12-04T14:15:56;1.80;59.90
4097;DHT22;2062;50.694;7.246;2023-12-04T14:18:24;1.80;59.90
4097;DHT22;2062;50.694;7.246;2023-12-04T14:20:51;1.80;60.00
4097;DHT22;2062;50.694;7.246;2023-12-04T14:23:18;1.80;60.80
4097;DHT22;2062;50.694;7.246;2023-12-04T14:25:46;1.80;60.00
4097;DHT22;2062;50.694;7.246;2023-12-04T14:28:13;1.80;60.00
4097;DHT22;2062;50.694;7.246;2023-12-04T14:30:40;1.80;60.10
4097;DHT22;2062;50.694;7.246;2023-12-04T14:33:07;1.80;60.10
4097;DHT22;2062;50.694;7.246;2023-12-04T14:35:36;1.80;60.30
4097;DHT22;2062;50.694;7.246;2023-12-04T14:38:03;1.80;60.20
4097;DHT22;2062;50.694;7.246;2023-12-04T14:40:30;1.80;60.40
4097;DHT22;2062;50.694;7.246;2023-12-04T14:42:57;1.70;60.50
4097;DHT22;2062;50.694;7.246;2023-12-04T14:45:24;1.70;60.50
4097;DHT22;2062;50.694;7.246;2023-12-04T14:47:51;1.70;60.50
4097;DHT22;2062;50.694;7.246;2023-12-04T14:50:21;1.70;60.60
4097;DHT22;2062;50.694;7.246;2023-12-04T14:52:51;1.70;60.70
4097;DHT22;2062;50.694;7.246;2023-12-04T14:55:20;1.80;60.70
4097;DHT22;2062;50.694;7.246;2023-12-04T14:58:30;1.70;60.70
4097;DHT22;2062;50.694;7.246;2023-12-04T15:01:20;1.70;60.70
4097;DHT22;2062;50.694;7.246;2023-12-04T15:04:03;1.70;60.80
4097;DHT22;2062;50.694;7.246;2023-12-04T15:06:56;1.70;60.90
4097;DHT22;2062;50.694;7.246;2023-12-04T15:09:47;1.70;60.90
4097;DHT22;2062;50.694;7.246;2023-12-04T15:12:49;1.70;61.00
4097;DHT22;2062;50.694;7.246;2023-12-04T15:15:48;1.70;60.90
4097;DHT22;2062;50.694;7.246;2023-12-04T15:18:40;1.70;60.90
4097;DHT22;2062;50.694;7.246;2023-12-04T15:21:23;1.70;61.00
4097;DHT22;2062;50.694;7.246;2023-12-04T15:23:50;1.70;61.00
4097;DHT22;2062;50.694;7.246;2023-12-04T15:26:17;1.70;61.10
4097;DHT22;2062;50.694;7.246;2023-12-04T15:28:44;1.70;61.10
4097;DHT22;2062;50.694;7.246;2023-12-04T15:31:10;1.70;61.10
4097;DHT22;2062;50.694;7.246;2023-12-04T15:33:37;1.70;61.10
4097;DHT22;2062;50.694;7.246;2023-12-04T15:36:03;1.70;61.20
4097;DHT22;2062;50.694;7.246;2023-12-04T15:38:30;1.70;61.30
4097;DHT22;2062;50.694;7.246;2023-12-04T15:40:56;1.70;61.40
4097;DHT22;2062;50.694;7.246;2023-12-04T15:43:24;1.70;61.40
4097;DHT22;2062;50.694;7.246;2023-12-04T15:45:50;1.70;61.50
4097;DHT22;2062;50.694;7.246;2023-12-04T15:48:17;1.80;61.50
4097;DHT22;2062;50.694;7.246;2023-12-04T15:50:43;1.70;61.70
4097;DHT22;2062;50.694;7.246;2023-12-04T15:53:10;1.70;61.60
4097;DHT22;2062;50.694;7.246;2023-12-04T15:55:35;1.70;61.70
4097;DHT22;2062;50.694;7.246;2023-12-04T15:58:02;1.80;61.60
4097;DHT22;2062;50.694;7.246;2023-12-04T16:00:29;1.70;61.60
4097;DHT22;2062;50.694;7.246;2023-12-04T16:02:56;1.70;61.60
4097;DHT22;2062;50.694;7.246;2023-12-04T16:05:23;1.70;61.60
4097;DHT22;2062;50.694;7.246;2023-12-04T16:07:50;1.70;61.80
4097;DHT22;2062;50.694;7.246;2023-12-04T16:10:17;1.80;61.70
4097;DHT22;2062;50.694;7.246;2023-12-04T16:12:43;1.70;61.90
4097;DHT22;2062;50.694;7.246;2023-12-04T16:15:10;1.70;61.70
4097;DHT22;2062;50.694;7.246;2023-12-04T16:17:39;1.70;62.00
4097;DHT22;2062;50.694;7.246;2023-12-04T16:20:06;1.80;61.90
4097;DHT22;2062;50.694;7.246;2023-12-04T16:22:35;1.70;62.00
4097;DHT22;2062;50.694;7.246;2023-12-04T16:25:03;1.80;61.90
4097;DHT22;2062;50.694;7.246;2023-12-04T16:27:30;1.80;62.00